sensor_id;sensor_type;location;lat;lon;timestamp;P1;durP1;ratioP1;P2;durP2;ratioP2
54271;SDS011;40184;53.362;5.216;2024-01-30T00:01:24;23.63;;;17.40;;
54271;SDS011;40184;53.362;5.216;2024-01-30T00:03:50;31.77;;;19.38;;
54271;SDS011;40184;53.362;5.216;2024-01-30T00:06:19;26.63;;;19.40;;
54271;SDS011;40184;53.362;5.216;2024-01-30T00:08:46;31.48;;;19.77;;
54271;SDS011;40184;53.362;5.216;2024-01-30T00:11:14;27.50;;;19.35;;
54271;SDS011;40184;53.362;5.216;2024-01-30T00:13:40;23.73;;;18.30;;
54271;SDS011;40184;53.362;5.216;2024-01-30T00:16:06;31.08;;;20.50;;
54271;SDS011;40184;53.362;5.216;2024-01-30T00:18:34;32.53;;;20.15;;
54271;SDS011;40184;53.362;5.216;2024-01-30T00:21:00;28.60;;;20.75;;
54271;SDS011;40184;53.362;5.216;2024-01-30T00:23:26;23.55;;;19.38;;
54271;SDS011;40184;53.362;5.216;2024-01-30T00:25:53;23.35;;;19.02;;
54271;SDS011;40184;53.362;5.216;2024-01-30T00:28:19;28.38;;;19.42;;
54271;SDS011;40184;53.362;5.216;2024-01-30T00:30:46;23.48;;;19.63;;
54271;SDS011;40184;53.362;5.216;2024-01-30T00:33:12;29.42;;;20.15;;
54271;SDS011;40184;53.362;5.216;2024-01-30T00:35:38;22.80;;;19.42;;
54271;SDS011;40184;53.362;5.216;2024-01-30T00:38:04;28.05;;;21.77;;
54271;SDS011;40184;53.362;5.216;2024-01-30T00:40:33;33.08;;;19.95;;
54271;SDS011;40184;53.362;5.216;2024-01-30T00:42:59;33.35;;;19.83;;
54271;SDS011;40184;53.362;5.216;2024-01-30T00:45:25;29.02;;;20.83;;
54271;SDS011;40184;53.362;5.216;2024-01-30T00:47:51;24.92;;;20.20;;
54271;SDS011;40184;53.362;5.216;2024-01-30T00:50:17;26.80;;;19.02;;
54271;SDS011;40184;53.362;5.216;2024-01-30T00:52:43;28.85;;;20.17;;
54271;SDS011;40184;53.362;5.216;2024-01-30T00:55:10;27.25;;;20.80;;
54271;SDS011;40184;53.362;5.216;2024-01-30T00:57:36;25.75;;;20.23;;
54271;SDS011;40184;53.362;5.216;2024-01-30T01:00:02;29.45;;;20.92;;
54271;SDS011;40184;53.362;5.216;2024-01-30T01:02:30;29.73;;;20.30;;
54271;SDS011;40184;53.362;5.216;2024-01-30T01:04:56;22.67;;;19.50;;
54271;SDS011;40184;53.362;5.216;2024-01-30T01:07:22;28.40;;;20.10;;
54271;SDS011;40184;53.362;5.216;2024-01-30T01:09:48;23.58;;;18.75;;
54271;SDS011;40184;53.362;5.216;2024-01-30T01:12:14;24.67;;;20.48;;
54271;SDS011;40184;53.362;5.216;2024-01-30T01:14:40;30.30;;;20.60;;
54271;SDS011;40184;53.362;5.216;2024-01-30T01:17:07;28.00;;;19.63;;
54271;SDS011;40184;53.362;5.216;2024-01-30T01:19:33;27.95;;;21.65;;
54271;SDS011;40184;53.362;5.216;2024-01-30T01:21:59;26.25;;;21.13;;
54271;SDS011;40184;53.362;5.216;2024-01-30T01:24:26;29.85;;;20.42;;
54271;SDS011;40184;53.362;5.216;2024-01-30T01:26:52;31.65;;;21.98;;
54271;SDS011;40184;53.362;5.216;2024-01-30T01:29:18;31.67;;;20.70;;
54271;SDS011;40184;53.362;5.216;2024-01-30T01:31:45;26.45;;;20.65;;
54271;SDS011;40184;53.362;5.216;2024-01-30T01:34:12;28.52;;;19.60;;
54271;SDS011;40184;53.362;5.216;2024-01-30T01:36:38;27.08;;;20.92;;
54271;SDS011;40184;53.362;5.216;2024-01-30T01:39:04;28.20;;;20.25;;
54271;SDS011;40184;53.362;5.216;2024-01-30T01:41:34;23.98;;;19.08;;
54271;SDS011;40184;53.362;5.216;2024-01-30T01:44:00;27.73;;;20.67;;
54271;SDS011;40184;53.362;5.216;2024-01-30T01:46:26;25.58;;;19.98;;
54271;SDS011;40184;53.362;5.216;2024-01-30T01:48:53;31.23;;;21.77;;
54271;SDS011;40184;53.362;5.216;2024-01-30T01:51:21;31.17;;;21.15;;
54271;SDS011;40184;53.362;5.216;2024-01-30T01:53:47;31.33;;;20.75;;
54271;SDS011;40184;53.362;5.216;2024-01-30T01:56:13;26.88;;;20.17;;
54271;SDS011;40184;53.362;5.216;2024-01-30T01:58:40;31.08;;;19.90;;
54271;SDS011;40184;53.362;5.216;2024-01-30T02:01:06;29.85;;;21.85;;
54271;SDS011;40184;53.362;5.216;2024-01-30T02:03:34;30.90;;;21.70;;
54271;SDS011;40184;53.362;5.216;2024-01-30T02:06:00;30.13;;;21.05;;
54271;SDS011;40184;53.362;5.216;2024-01-30T02:08:27;32.67;;;21.80;;
54271;SDS011;40184;53.362;5.216;2024-01-30T02:10:53;27.90;;;21.20;;
54271;SDS011;40184;53.362;5.216;2024-01-30T02:13:20;33.45;;;21.45;;
54271;SDS011;40184;53.362;5.216;2024-01-30T02:15:50;28.95;;;22.40;;
54271;SDS011;40184;53.362;5.216;2024-01-30T02:18:17;29.38;;;21.00;;
54271;SDS011;40184;53.362;5.216;2024-01-30T02:20:43;28.50;;;21.58;;
54271;SDS011;40184;53.362;5.216;2024-01-30T02:23:09;30.75;;;21.92;;
54271;SDS011;40184;53.362;5.216;2024-01-30T02:25:38;29.63;;;22.65;;
54271;SDS011;40184;53.362;5.216;2024-01-30T02:28:09;30.58;;;22.52;;
54271;SDS011;40184;53.362;5.216;2024-01-30T02:30:36;30.25;;;20.90;;
54271;SDS011;40184;53.362;5.216;2024-01-30T02:33:02;30.63;;;21.42;;
54271;SDS011;40184;53.362;5.216;2024-01-30T02:35:28;27.77;;;21.33;;
54271;SDS011;40184;53.362;5.216;2024-01-30T02:37:54;29.25;;;21.35;;
54271;SDS011;40184;53.362;5.216;2024-01-30T02:40:20;26.50;;;21.02;;
54271;SDS011;40184;53.362;5.216;2024-01-30T02:42:46;32.35;;;22.13;;
54271;SDS011;40184;53.362;5.216;2024-01-30T02:45:12;27.88;;;20.98;;
54271;SDS011;40184;53.362;5.216;2024-01-30T02:47:39;26.92;;;21.75;;
54271;SDS011;40184;53.362;5.216;2024-01-30T02:50:05;31.20;;;22.20;;
54271;SDS011;40184;53.362;5.216;2024-01-30T02:52:31;30.30;;;22.80;;
54271;SDS011;40184;53.362;5.216;2024-01-30T02:54:58;30.10;;;21.65;;
54271;SDS011;40184;53.362;5.216;2024-01-30T02:57:24;30.10;;;21.88;;
54271;SDS011;40184;53.362;5.216;2024-01-30T02:59:50;31.95;;;21.85;;
54271;SDS011;40184;53.362;5.216;2024-01-30T03:02:16;32.63;;;21.90;;
54271;SDS011;40184;53.362;5.216;2024-01-30T03:04:42;32.42;;;21.05;;
54271;SDS011;40184;53.362;5.216;2024-01-30T03:07:08;31.17;;;21.58;;
54271;SDS011;40184;53.362;5.216;2024-01-30T03:09:34;32.65;;;23.38;;
54271;SDS011;40184;53.362;5.216;2024-01-30T03:12:00;27.35;;;20.98;;
54271;SDS011;40184;53.362;5.216;2024-01-30T03:14:26;32.75;;;22.67;;
54271;SDS011;40184;53.362;5.216;2024-01-30T03:16:52;24.67;;;21.27;;
54271;SDS011;40184;53.362;5.216;2024-01-30T03:19:18;24.13;;;20.40;;
54271;SDS011;40184;53.362;5.216;2024-01-30T03:21:45;29.85;;;21.15;;
54271;SDS011;40184;53.362;5.216;2024-01-30T03:24:11;30.98;;;22.52;;
54271;SDS011;40184;53.362;5.216;2024-01-30T03:26:37;24.30;;;21.20;;
54271;SDS011;40184;53.362;5.216;2024-01-30T03:29:03;31.23;;;20.92;;
54271;SDS011;40184;53.362;5.216;2024-01-30T03:31:29;26.45;;;21.27;;
54271;SDS011;40184;53.362;5.216;2024-01-30T03:33:55;29.25;;;20.77;;
54271;SDS011;40184;53.362;5.216;2024-01-30T03:36:21;29.17;;;21.52;;
54271;SDS011;40184;53.362;5.216;2024-01-30T03:38:47;28.60;;;22.15;;
54271;SDS011;40184;53.362;5.216;2024-01-30T03:41:13;22.50;;;20.02;;
54271;SDS011;40184;53.362;5.216;2024-01-30T03:43:39;32.53;;;22.02;;
54271;SDS011;40184;53.362;5.216;2024-01-30T03:46:06;27.15;;;22.33;;
54271;SDS011;40184;53.362;5.216;2024-01-30T03:48:32;26.65;;;22.02;;
54271;SDS011;40184;53.362;5.216;2024-01-30T03:50:58;29.90;;;22.02;;
54271;SDS011;40184;53.362;5.216;2024-01-30T03:53:24;27.77;;;21.50;;
54271;SDS011;40184;53.362;5.216;2024-01-30T03:55:50;25.80;;;20.63;;
54271;SDS011;40184;53.362;5.216;2024-01-30T03:58:16;28.02;;;22.00;;
54271;SDS011;40184;53.362;5.216;2024-01-30T04:00:43;26.50;;;21.65;;
54271;SDS011;40184;53.362;5.216;2024-01-30T04:03:09;25.80;;;20.63;;
54271;SDS011;40184;53.362;5.216;2024-01-30T04:05:35;28.40;;;21.00;;
54271;SDS011;40184;53.362;5.216;2024-01-30T04:08:01;26.10;;;20.75;;
54271;SDS011;40184;53.362;5.216;2024-01-30T04:10:27;26.48;;;21.17;;
54271;SDS011;40184;53.362;5.216;2024-01-30T04:12:53;33.67;;;20.60;;
54271;SDS011;40184;53.362;5.216;2024-01-30T04:15:20;28.20;;;20.42;;
54271;SDS011;40184;53.362;5.216;2024-01-30T04:17:46;25.50;;;20.10;;
54271;SDS011;40184;53.362;5.216;2024-01-30T04:20:15;23.95;;;20.48;;
54271;SDS011;40184;53.362;5.216;2024-01-30T04:22:43;26.17;;;19.35;;
54271;SDS011;40184;53.362;5.216;2024-01-30T04:25:09;26.83;;;21.77;;
54271;SDS011;40184;53.362;5.216;2024-01-30T04:27:35;26.30;;;19.92;;
54271;SDS011;40184;53.362;5.216;2024-01-30T04:30:01;27.20;;;21.05;;
54271;SDS011;40184;53.362;5.216;2024-01-30T04:32:27;25.10;;;19.33;;
54271;SDS011;40184;53.362;5.216;2024-01-30T04:34:53;27.77;;;19.15;;
54271;SDS011;40184;53.362;5.216;2024-01-30T04:37:20;24.02;;;18.48;;
54271;SDS011;40184;53.362;5.216;2024-01-30T04:39:46;26.60;;;19.05;;
54271;SDS011;40184;53.362;5.216;2024-01-30T04:42:12;29.40;;;18.83;;
54271;SDS011;40184;53.362;5.216;2024-01-30T04:44:38;25.42;;;18.65;;
54271;SDS011;40184;53.362;5.216;2024-01-30T04:47:04;27.88;;;19.63;;
54271;SDS011;40184;53.362;5.216;2024-01-30T04:49:31;22.85;;;19.42;;
54271;SDS011;40184;53.362;5.216;2024-01-30T04:51:57;28.50;;;19.92;;
54271;SDS011;40184;53.362;5.216;2024-01-30T04:54:23;22.92;;;19.23;;
54271;SDS011;40184;53.362;5.216;2024-01-30T04:56:49;25.40;;;18.42;;
54271;SDS011;40184;53.362;5.216;2024-01-30T04:59:15;27.05;;;18.38;;
54271;SDS011;40184;53.362;5.216;2024-01-30T05:01:42;25.10;;;19.00;;
54271;SDS011;40184;53.362;5.216;2024-01-30T05:04:08;23.02;;;19.45;;
54271;SDS011;40184;53.362;5.216;2024-01-30T05:06:34;24.75;;;18.08;;
54271;SDS011;40184;53.362;5.216;2024-01-30T05:09:00;24.80;;;19.73;;
54271;SDS011;40184;53.362;5.216;2024-01-30T05:11:26;25.25;;;19.00;;
54271;SDS011;40184;53.362;5.216;2024-01-30T05:13:53;25.50;;;19.10;;
54271;SDS011;40184;53.362;5.216;2024-01-30T05:16:19;22.83;;;18.48;;
54271;SDS011;40184;53.362;5.216;2024-01-30T05:18:45;25.85;;;19.27;;
54271;SDS011;40184;53.362;5.216;2024-01-30T05:21:11;27.95;;;19.33;;
54271;SDS011;40184;53.362;5.216;2024-01-30T05:23:37;21.15;;;16.75;;
54271;SDS011;40184;53.362;5.216;2024-01-30T05:26:03;23.27;;;18.40;;
54271;SDS011;40184;53.362;5.216;2024-01-30T05:28:29;27.80;;;18.67;;
54271;SDS011;40184;53.362;5.216;2024-01-30T05:30:56;23.77;;;16.98;;
54271;SDS011;40184;53.362;5.216;2024-01-30T05:33:22;22.42;;;17.60;;
54271;SDS011;40184;53.362;5.216;2024-01-30T05:35:48;25.35;;;16.30;;
54271;SDS011;40184;53.362;5.216;2024-01-30T05:38:15;18.90;;;16.45;;
54271;SDS011;40184;53.362;5.216;2024-01-30T05:40:41;21.85;;;17.48;;
54271;SDS011;40184;53.362;5.216;2024-01-30T05:43:07;23.92;;;17.15;;
54271;SDS011;40184;53.362;5.216;2024-01-30T05:45:33;25.38;;;17.98;;
54271;SDS011;40184;53.362;5.216;2024-01-30T05:48:01;28.20;;;17.10;;
54271;SDS011;40184;53.362;5.216;2024-01-30T05:50:27;25.08;;;18.27;;
54271;SDS011;40184;53.362;5.216;2024-01-30T05:52:53;20.45;;;16.45;;
54271;SDS011;40184;53.362;5.216;2024-01-30T05:55:19;26.20;;;17.45;;
54271;SDS011;40184;53.362;5.216;2024-01-30T05:57:45;22.30;;;16.02;;
54271;SDS011;40184;53.362;5.216;2024-01-30T06:00:11;21.13;;;16.83;;
54271;SDS011;40184;53.362;5.216;2024-01-30T06:02:38;25.73;;;17.27;;
54271;SDS011;40184;53.362;5.216;2024-01-30T06:05:04;21.75;;;17.27;;
54271;SDS011;40184;53.362;5.216;2024-01-30T06:07:30;22.17;;;16.65;;
54271;SDS011;40184;53.362;5.216;2024-01-30T06:09:56;25.42;;;16.77;;
54271;SDS011;40184;53.362;5.216;2024-01-30T06:12:22;24.30;;;16.80;;
54271;SDS011;40184;53.362;5.216;2024-01-30T06:14:48;27.00;;;16.13;;
54271;SDS011;40184;53.362;5.216;2024-01-30T06:17:14;20.92;;;17.50;;
54271;SDS011;40184;53.362;5.216;2024-01-30T06:19:40;21.02;;;16.48;;
54271;SDS011;40184;53.362;5.216;2024-01-30T06:22:06;25.15;;;16.35;;
54271;SDS011;40184;53.362;5.216;2024-01-30T06:24:33;19.02;;;15.23;;
54271;SDS011;40184;53.362;5.216;2024-01-30T06:27:00;27.52;;;18.02;;
54271;SDS011;40184;53.362;5.216;2024-01-30T06:29:26;23.83;;;16.33;;
54271;SDS011;40184;53.362;5.216;2024-01-30T06:31:52;23.20;;;16.05;;
54271;SDS011;40184;53.362;5.216;2024-01-30T06:34:18;20.23;;;16.00;;
54271;SDS011;40184;53.362;5.216;2024-01-30T06:36:44;22.67;;;16.02;;
54271;SDS011;40184;53.362;5.216;2024-01-30T06:39:10;24.40;;;16.92;;
54271;SDS011;40184;53.362;5.216;2024-01-30T06:41:36;27.48;;;17.50;;
54271;SDS011;40184;53.362;5.216;2024-01-30T06:44:02;21.25;;;16.38;;
54271;SDS011;40184;53.362;5.216;2024-01-30T06:46:33;23.48;;;16.08;;
54271;SDS011;40184;53.362;5.216;2024-01-30T06:48:59;21.10;;;17.38;;
54271;SDS011;40184;53.362;5.216;2024-01-30T06:51:26;22.85;;;17.65;;
54271;SDS011;40184;53.362;5.216;2024-01-30T06:53:52;21.67;;;16.60;;
54271;SDS011;40184;53.362;5.216;2024-01-30T06:56:18;26.25;;;16.45;;
54271;SDS011;40184;53.362;5.216;2024-01-30T06:58:49;21.60;;;15.02;;
54271;SDS011;40184;53.362;5.216;2024-01-30T07:01:15;22.17;;;17.88;;
54271;SDS011;40184;53.362;5.216;2024-01-30T07:03:42;23.38;;;16.25;;
54271;SDS011;40184;53.362;5.216;2024-01-30T07:06:08;26.42;;;16.05;;
54271;SDS011;40184;53.362;5.216;2024-01-30T07:08:35;22.73;;;16.40;;
54271;SDS011;40184;53.362;5.216;2024-01-30T07:11:04;25.75;;;16.02;;
54271;SDS011;40184;53.362;5.216;2024-01-30T07:13:31;22.77;;;16.55;;
54271;SDS011;40184;53.362;5.216;2024-01-30T07:15:57;27.92;;;16.65;;
54271;SDS011;40184;53.362;5.216;2024-01-30T07:18:23;22.33;;;15.32;;
54271;SDS011;40184;53.362;5.216;2024-01-30T07:20:49;24.88;;;15.85;;
54271;SDS011;40184;53.362;5.216;2024-01-30T07:23:16;21.38;;;14.65;;
54271;SDS011;40184;53.362;5.216;2024-01-30T07:25:45;25.08;;;16.17;;
54271;SDS011;40184;53.362;5.216;2024-01-30T07:28:11;23.33;;;17.40;;
54271;SDS011;40184;53.362;5.216;2024-01-30T07:30:38;24.85;;;15.95;;
54271;SDS011;40184;53.362;5.216;2024-01-30T07:33:04;29.27;;;16.88;;
54271;SDS011;40184;53.362;5.216;2024-01-30T07:35:30;23.88;;;16.67;;
54271;SDS011;40184;53.362;5.216;2024-01-30T07:37:56;23.08;;;16.33;;
54271;SDS011;40184;53.362;5.216;2024-01-30T07:40:23;24.63;;;16.05;;
54271;SDS011;40184;53.362;5.216;2024-01-30T07:42:49;24.33;;;16.95;;
54271;SDS011;40184;53.362;5.216;2024-01-30T07:45:15;20.33;;;15.77;;
54271;SDS011;40184;53.362;5.216;2024-01-30T07:47:41;24.65;;;15.60;;
54271;SDS011;40184;53.362;5.216;2024-01-30T07:50:08;25.50;;;16.63;;
54271;SDS011;40184;53.362;5.216;2024-01-30T07:52:34;17.63;;;14.45;;
54271;SDS011;40184;53.362;5.216;2024-01-30T07:55:00;25.17;;;15.55;;
54271;SDS011;40184;53.362;5.216;2024-01-30T07:57:29;26.30;;;16.60;;
54271;SDS011;40184;53.362;5.216;2024-01-30T07:59:55;24.77;;;15.70;;
54271;SDS011;40184;53.362;5.216;2024-01-30T08:02:22;25.90;;;17.58;;
54271;SDS011;40184;53.362;5.216;2024-01-30T08:04:48;27.35;;;15.68;;
54271;SDS011;40184;53.362;5.216;2024-01-30T08:07:14;25.92;;;15.55;;
54271;SDS011;40184;53.362;5.216;2024-01-30T08:09:42;21.15;;;15.80;;
54271;SDS011;40184;53.362;5.216;2024-01-30T08:12:08;30.20;;;17.05;;
54271;SDS011;40184;53.362;5.216;2024-01-30T08:14:34;29.00;;;16.25;;
54271;SDS011;40184;53.362;5.216;2024-01-30T08:17:00;24.63;;;14.73;;
54271;SDS011;40184;53.362;5.216;2024-01-30T08:19:26;26.98;;;16.70;;
54271;SDS011;40184;53.362;5.216;2024-01-30T08:21:53;32.45;;;15.32;;
54271;SDS011;40184;53.362;5.216;2024-01-30T08:24:19;31.13;;;15.38;;
54271;SDS011;40184;53.362;5.216;2024-01-30T08:26:45;25.73;;;16.60;;
54271;SDS011;40184;53.362;5.216;2024-01-30T08:29:11;26.48;;;15.93;;
54271;SDS011;40184;53.362;5.216;2024-01-30T08:31:37;20.33;;;15.77;;
54271;SDS011;40184;53.362;5.216;2024-01-30T08:34:03;28.67;;;15.18;;
54271;SDS011;40184;53.362;5.216;2024-01-30T08:36:29;33.42;;;18.55;;
54271;SDS011;40184;53.362;5.216;2024-01-30T08:38:55;33.17;;;15.55;;
54271;SDS011;40184;53.362;5.216;2024-01-30T08:41:21;22.10;;;15.18;;
54271;SDS011;40184;53.362;5.216;2024-01-30T08:43:47;26.55;;;14.63;;
54271;SDS011;40184;53.362;5.216;2024-01-30T08:46:17;24.85;;;15.05;;
54271;SDS011;40184;53.362;5.216;2024-01-30T08:48:43;25.27;;;14.82;;
54271;SDS011;40184;53.362;5.216;2024-01-30T08:51:09;25.70;;;14.23;;
54271;SDS011;40184;53.362;5.216;2024-01-30T08:53:36;27.38;;;12.93;;
54271;SDS011;40184;53.362;5.216;2024-01-30T08:56:02;25.15;;;12.48;;
54271;SDS011;40184;53.362;5.216;2024-01-30T08:58:28;24.52;;;11.95;;
54271;SDS011;40184;53.362;5.216;2024-01-30T09:00:55;24.33;;;11.85;;
54271;SDS011;40184;53.362;5.216;2024-01-30T09:03:21;24.20;;;10.13;;
54271;SDS011;40184;53.362;5.216;2024-01-30T09:05:47;34.35;;;12.23;;
54271;SDS011;40184;53.362;5.216;2024-01-30T09:08:13;29.95;;;11.07;;
54271;SDS011;40184;53.362;5.216;2024-01-30T09:10:39;38.78;;;10.73;;
54271;SDS011;40184;53.362;5.216;2024-01-30T09:13:06;31.13;;;10.60;;
54271;SDS011;40184;53.362;5.216;2024-01-30T09:15:32;30.42;;;11.02;;
54271;SDS011;40184;53.362;5.216;2024-01-30T09:17:58;33.08;;;10.10;;
54271;SDS011;40184;53.362;5.216;2024-01-30T09:20:24;38.78;;;10.13;;
54271;SDS011;40184;53.362;5.216;2024-01-30T09:22:50;36.28;;;8.88;;
54271;SDS011;40184;53.362;5.216;2024-01-30T09:25:16;28.67;;;9.88;;
54271;SDS011;40184;53.362;5.216;2024-01-30T09:27:43;33.65;;;11.13;;
54271;SDS011;40184;53.362;5.216;2024-01-30T09:30:11;37.40;;;10.55;;
54271;SDS011;40184;53.362;5.216;2024-01-30T09:32:39;37.28;;;10.85;;
54271;SDS011;40184;53.362;5.216;2024-01-30T09:35:05;34.53;;;10.02;;
54271;SDS011;40184;53.362;5.216;2024-01-30T09:37:31;39.35;;;11.93;;
54271;SDS011;40184;53.362;5.216;2024-01-30T09:39:57;39.35;;;11.05;;
54271;SDS011;40184;53.362;5.216;2024-01-30T09:42:28;41.15;;;11.32;;
54271;SDS011;40184;53.362;5.216;2024-01-30T09:44:55;38.65;;;11.15;;
54271;SDS011;40184;53.362;5.216;2024-01-30T09:47:21;40.85;;;10.18;;
54271;SDS011;40184;53.362;5.216;2024-01-30T09:49:47;40.35;;;10.38;;
54271;SDS011;40184;53.362;5.216;2024-01-30T09:52:14;43.03;;;9.90;;
54271;SDS011;40184;53.362;5.216;2024-01-30T09:54:41;39.03;;;9.77;;
54271;SDS011;40184;53.362;5.216;2024-01-30T09:57:07;38.95;;;10.55;;
54271;SDS011;40184;53.362;5.216;2024-01-30T09:59:34;43.13;;;9.13;;
54271;SDS011;40184;53.362;5.216;2024-01-30T10:02:00;43.42;;;8.73;;
54271;SDS011;40184;53.362;5.216;2024-01-30T10:04:29;40.58;;;7.80;;
54271;SDS011;40184;53.362;5.216;2024-01-30T10:06:55;50.00;;;8.10;;
54271;SDS011;40184;53.362;5.216;2024-01-30T10:09:21;50.03;;;7.65;;
54271;SDS011;40184;53.362;5.216;2024-01-30T10:11:48;38.80;;;8.20;;
54271;SDS011;40184;53.362;5.216;2024-01-30T10:14:15;44.78;;;7.40;;
54271;SDS011;40184;53.362;5.216;2024-01-30T10:16:41;44.65;;;8.75;;
54271;SDS011;40184;53.362;5.216;2024-01-30T10:19:07;35.30;;;6.30;;
54271;SDS011;40184;53.362;5.216;2024-01-30T10:21:33;34.20;;;5.75;;
54271;SDS011;40184;53.362;5.216;2024-01-30T10:24:00;34.38;;;6.53;;
54271;SDS011;40184;53.362;5.216;2024-01-30T10:26:26;32.13;;;6.40;;
54271;SDS011;40184;53.362;5.216;2024-01-30T10:28:54;32.28;;;6.90;;
54271;SDS011;40184;53.362;5.216;2024-01-30T10:31:20;32.22;;;5.78;;
54271;SDS011;40184;53.362;5.216;2024-01-30T10:33:46;30.88;;;6.47;;
54271;SDS011;40184;53.362;5.216;2024-01-30T10:36:13;40.40;;;6.43;;
54271;SDS011;40184;53.362;5.216;2024-01-30T10:38:42;27.88;;;5.35;;
54271;SDS011;40184;53.362;5.216;2024-01-30T10:41:11;25.08;;;5.18;;
54271;SDS011;40184;53.362;5.216;2024-01-30T10:43:40;33.10;;;5.18;;
54271;SDS011;40184;53.362;5.216;2024-01-30T10:46:11;24.85;;;5.57;;
54271;SDS011;40184;53.362;5.216;2024-01-30T10:48:42;24.77;;;5.07;;
54271;SDS011;40184;53.362;5.216;2024-01-30T10:51:09;30.58;;;5.85;;
54271;SDS011;40184;53.362;5.216;2024-01-30T10:53:37;32.70;;;5.30;;
54271;SDS011;40184;53.362;5.216;2024-01-30T10:56:04;24.77;;;4.70;;
54271;SDS011;40184;53.362;5.216;2024-01-30T10:58:30;39.58;;;5.40;;
54271;SDS011;40184;53.362;5.216;2024-01-30T11:00:56;30.55;;;5.55;;
54271;SDS011;40184;53.362;5.216;2024-01-30T11:03:23;31.77;;;5.55;;
54271;SDS011;40184;53.362;5.216;2024-01-30T11:05:50;23.00;;;4.20;;
54271;SDS011;40184;53.362;5.216;2024-01-30T11:08:23;31.75;;;5.00;;
54271;SDS011;40184;53.362;5.216;2024-01-30T11:10:54;27.95;;;4.80;;
54271;SDS011;40184;53.362;5.216;2024-01-30T11:13:20;18.17;;;3.70;;
54271;SDS011;40184;53.362;5.216;2024-01-30T11:15:47;16.85;;;3.75;;
54271;SDS011;40184;53.362;5.216;2024-01-30T11:18:22;29.13;;;4.07;;
54271;SDS011;40184;53.362;5.216;2024-01-30T11:20:49;25.60;;;4.43;;
54271;SDS011;40184;53.362;5.216;2024-01-30T11:23:15;25.88;;;4.18;;
54271;SDS011;40184;53.362;5.216;2024-01-30T11:25:43;25.55;;;4.40;;
54271;SDS011;40184;53.362;5.216;2024-01-30T11:28:16;31.73;;;4.72;;
54271;SDS011;40184;53.362;5.216;2024-01-30T11:30:42;18.17;;;3.60;;
54271;SDS011;40184;53.362;5.216;2024-01-30T11:33:12;19.75;;;4.30;;
54271;SDS011;40184;53.362;5.216;2024-01-30T11:35:39;24.88;;;4.38;;
54271;SDS011;40184;53.362;5.216;2024-01-30T11:38:05;20.27;;;3.75;;
54271;SDS011;40184;53.362;5.216;2024-01-30T11:40:32;27.65;;;3.67;;
54271;SDS011;40184;53.362;5.216;2024-01-30T11:42:59;33.00;;;5.05;;
54271;SDS011;40184;53.362;5.216;2024-01-30T11:45:28;26.20;;;3.92;;
54271;SDS011;40184;53.362;5.216;2024-01-30T11:47:55;23.30;;;3.30;;
54271;SDS011;40184;53.362;5.216;2024-01-30T11:50:21;20.15;;;3.88;;
54271;SDS011;40184;53.362;5.216;2024-01-30T11:52:47;18.05;;;3.47;;
54271;SDS011;40184;53.362;5.216;2024-01-30T11:55:14;16.77;;;3.45;;
54271;SDS011;40184;53.362;5.216;2024-01-30T11:57:40;16.13;;;4.53;;
54271;SDS011;40184;53.362;5.216;2024-01-30T12:00:13;13.85;;;2.72;;
54271;SDS011;40184;53.362;5.216;2024-01-30T12:02:40;15.02;;;2.90;;
54271;SDS011;40184;53.362;5.216;2024-01-30T12:05:09;10.15;;;2.10;;
54271;SDS011;40184;53.362;5.216;2024-01-30T12:07:35;12.80;;;1.95;;
54271;SDS011;40184;53.362;5.216;2024-01-30T12:10:02;14.77;;;3.25;;
54271;SDS011;40184;53.362;5.216;2024-01-30T12:12:28;14.88;;;3.05;;
54271;SDS011;40184;53.362;5.216;2024-01-30T12:14:55;16.08;;;2.58;;
54271;SDS011;40184;53.362;5.216;2024-01-30T12:17:28;15.07;;;3.00;;
54271;SDS011;40184;53.362;5.216;2024-01-30T12:20:04;14.25;;;2.28;;
54271;SDS011;40184;53.362;5.216;2024-01-30T12:22:41;20.90;;;3.50;;
54271;SDS011;40184;53.362;5.216;2024-01-30T12:25:08;22.35;;;3.33;;
54271;SDS011;40184;53.362;5.216;2024-01-30T12:27:34;16.35;;;2.38;;
54271;SDS011;40184;53.362;5.216;2024-01-30T12:30:00;9.30;;;1.92;;
54271;SDS011;40184;53.362;5.216;2024-01-30T12:32:27;14.25;;;2.33;;
54271;SDS011;40184;53.362;5.216;2024-01-30T12:34:54;15.30;;;2.28;;
54271;SDS011;40184;53.362;5.216;2024-01-30T12:37:20;12.80;;;2.67;;
54271;SDS011;40184;53.362;5.216;2024-01-30T12:39:48;16.67;;;4.10;;
54271;SDS011;40184;53.362;5.216;2024-01-30T12:42:14;14.05;;;2.20;;
54271;SDS011;40184;53.362;5.216;2024-01-30T12:44:40;12.48;;;2.70;;
54271;SDS011;40184;53.362;5.216;2024-01-30T12:47:08;14.18;;;2.78;;
54271;SDS011;40184;53.362;5.216;2024-01-30T12:49:35;15.63;;;3.92;;
54271;SDS011;40184;53.362;5.216;2024-01-30T12:52:01;10.13;;;2.80;;
54271;SDS011;40184;53.362;5.216;2024-01-30T12:54:27;10.13;;;2.28;;
54271;SDS011;40184;53.362;5.216;2024-01-30T12:56:53;11.68;;;4.35;;
54271;SDS011;40184;53.362;5.216;2024-01-30T12:59:21;12.63;;;2.28;;
54271;SDS011;40184;53.362;5.216;2024-01-30T13:01:47;10.85;;;2.72;;
54271;SDS011;40184;53.362;5.216;2024-01-30T13:04:13;16.23;;;3.38;;
54271;SDS011;40184;53.362;5.216;2024-01-30T13:06:41;9.15;;;1.92;;
54271;SDS011;40184;53.362;5.216;2024-01-30T13:09:07;9.65;;;2.67;;
54271;SDS011;40184;53.362;5.216;2024-01-30T13:11:34;11.35;;;2.88;;
54271;SDS011;40184;53.362;5.216;2024-01-30T13:14:01;17.00;;;2.67;;
54271;SDS011;40184;53.362;5.216;2024-01-30T13:16:27;12.57;;;2.30;;
54271;SDS011;40184;53.362;5.216;2024-01-30T13:18:53;16.52;;;2.95;;
54271;SDS011;40184;53.362;5.216;2024-01-30T13:21:20;15.40;;;3.47;;
54271;SDS011;40184;53.362;5.216;2024-01-30T13:23:46;11.00;;;2.63;;
54271;SDS011;40184;53.362;5.216;2024-01-30T13:26:12;18.63;;;3.30;;
54271;SDS011;40184;53.362;5.216;2024-01-30T13:28:39;16.08;;;3.30;;
54271;SDS011;40184;53.362;5.216;2024-01-30T13:31:05;16.85;;;3.35;;
54271;SDS011;40184;53.362;5.216;2024-01-30T13:33:31;27.17;;;4.43;;
54271;SDS011;40184;53.362;5.216;2024-01-30T13:35:57;17.85;;;4.22;;
54271;SDS011;40184;53.362;5.216;2024-01-30T13:38:23;19.60;;;3.83;;
54271;SDS011;40184;53.362;5.216;2024-01-30T13:40:50;17.30;;;4.03;;
54271;SDS011;40184;53.362;5.216;2024-01-30T13:43:16;21.42;;;4.93;;
54271;SDS011;40184;53.362;5.216;2024-01-30T13:45:43;24.65;;;4.65;;
54271;SDS011;40184;53.362;5.216;2024-01-30T13:48:09;20.25;;;3.53;;
54271;SDS011;40184;53.362;5.216;2024-01-30T13:50:35;20.00;;;4.47;;
54271;SDS011;40184;53.362;5.216;2024-01-30T13:53:02;26.88;;;3.95;;
54271;SDS011;40184;53.362;5.216;2024-01-30T13:55:29;15.07;;;2.78;;
54271;SDS011;40184;53.362;5.216;2024-01-30T13:57:55;12.57;;;2.53;;
54271;SDS011;40184;53.362;5.216;2024-01-30T14:00:22;17.80;;;3.83;;
54271;SDS011;40184;53.362;5.216;2024-01-30T14:02:50;9.13;;;1.98;;
54271;SDS011;40184;53.362;5.216;2024-01-30T14:05:16;12.27;;;2.80;;
54271;SDS011;40184;53.362;5.216;2024-01-30T14:07:43;12.60;;;2.88;;
54271;SDS011;40184;53.362;5.216;2024-01-30T14:10:10;15.57;;;4.38;;
54271;SDS011;40184;53.362;5.216;2024-01-30T14:12:36;17.15;;;5.55;;
54271;SDS011;40184;53.362;5.216;2024-01-30T14:15:02;20.67;;;4.65;;
54271;SDS011;40184;53.362;5.216;2024-01-30T14:17:28;22.00;;;4.53;;
54271;SDS011;40184;53.362;5.216;2024-01-30T14:19:54;33.38;;;6.63;;
54271;SDS011;40184;53.362;5.216;2024-01-30T14:22:21;25.50;;;6.20;;